sensor_id;sensor_type;location;lat;lon;timestamp;P1;durP1;ratioP1;P2;durP2;ratioP2
16654;SDS011;8441;51.344;7.022;2023-04-03T00:02:15;0.50;;;0.50;;
16654;SDS011;8441;51.344;7.022;2023-04-03T00:04:42;0.50;;;0.50;;
16654;SDS011;8441;51.344;7.022;2023-04-03T00:07:10;0.50;;;0.50;;
16654;SDS011;8441;51.344;7.022;2023-04-03T00:09:37;0.60;;;0.60;;
16654;SDS011;8441;51.344;7.022;2023-04-03T00:12:04;0.60;;;0.60;;
16654;SDS011;8441;51.344;7.022;2023-04-03T00:14:33;0.67;;;0.67;;
16654;SDS011;8441;51.344;7.022;2023-04-03T00:17:00;0.50;;;0.50;;
16654;SDS011;8441;51.344;7.022;2023-04-03T00:19:27;0.60;;;0.60;;
16654;SDS011;8441;51.344;7.022;2023-04-03T00:21:55;0.50;;;0.50;;
16654;SDS011;8441;51.344;7.022;2023-04-03T00:24:22;0.50;;;0.50;;
16654;SDS011;8441;51.344;7.022;2023-04-03T00:26:49;0.60;;;0.60;;
16654;SDS011;8441;51.344;7.022;2023-04-03T00:29:16;0.50;;;0.50;;
16654;SDS011;8441;51.344;7.022;2023-04-03T00:31:45;0.50;;;0.50;;
16654;SDS011;8441;51.344;7.022;2023-04-03T00:34:12;0.60;;;0.60;;
16654;SDS011;8441;51.344;7.022;2023-04-03T00:36:39;0.50;;;0.50;;
16654;SDS011;8441;51.344;7.022;2023-04-03T00:39:07;0.70;;;0.70;;
16654;SDS011;8441;51.344;7.022;2023-04-03T00:41:34;0.50;;;0.50;;
16654;SDS011;8441;51.344;7.022;2023-04-03T00:47:10;0.50;;;0.50;;
16654;SDS011;8441;51.344;7.022;2023-04-03T00:49:39;0.60;;;0.60;;
16654;SDS011;8441;51.344;7.022;2023-04-03T00:52:07;0.63;;;0.63;;
16654;SDS011;8441;51.344;7.022;2023-04-03T00:54:40;0.60;;;0.60;;
16654;SDS011;8441;51.344;7.022;2023-04-03T00:57:09;0.60;;;0.60;;
16654;SDS011;8441;51.344;7.022;2023-04-03T00:59:38;0.43;;;0.43;;
16654;SDS011;8441;51.344;7.022;2023-04-03T01:02:11;0.40;;;0.40;;
16654;SDS011;8441;51.344;7.022;2023-04-03T01:04:39;0.60;;;0.60;;
16654;SDS011;8441;51.344;7.022;2023-04-03T01:07:08;0.60;;;0.60;;
16654;SDS011;8441;51.344;7.022;2023-04-03T01:09:38;0.60;;;0.60;;
16654;SDS011;8441;51.344;7.022;2023-04-03T01:12:13;0.47;;;0.47;;
16654;SDS011;8441;51.344;7.022;2023-04-03T01:14:42;0.50;;;0.50;;
16654;SDS011;8441;51.344;7.022;2023-04-03T01:20:12;0.50;;;0.50;;
16654;SDS011;8441;51.344;7.022;2023-04-03T01:23:06;0.60;;;0.60;;
16654;SDS011;8441;51.344;7.022;2023-04-03T01:25:46;0.60;;;0.60;;
16654;SDS011;8441;51.344;7.022;2023-04-03T01:28:15;0.50;;;0.50;;
16654;SDS011;8441;51.344;7.022;2023-04-03T01:30:45;0.50;;;0.50;;
16654;SDS011;8441;51.344;7.022;2023-04-03T01:33:16;0.30;;;0.30;;
16654;SDS011;8441;51.344;7.022;2023-04-03T01:35:43;0.60;;;0.60;;
16654;SDS011;8441;51.344;7.022;2023-04-03T01:38:10;0.40;;;0.40;;
16654;SDS011;8441;51.344;7.022;2023-04-03T01:40:38;0.50;;;0.50;;
16654;SDS011;8441;51.344;7.022;2023-04-03T01:43:05;0.53;;;0.53;;
16654;SDS011;8441;51.344;7.022;2023-04-03T01:45:32;0.47;;;0.47;;
16654;SDS011;8441;51.344;7.022;2023-04-03T01:47:59;0.60;;;0.60;;
16654;SDS011;8441;51.344;7.022;2023-04-03T01:50:28;0.60;;;0.60;;
16654;SDS011;8441;51.344;7.022;2023-04-03T01:52:55;0.50;;;0.50;;
16654;SDS011;8441;51.344;7.022;2023-04-03T01:55:22;0.40;;;0.40;;
16654;SDS011;8441;51.344;7.022;2023-04-03T01:57:49;0.50;;;0.50;;
16654;SDS011;8441;51.344;7.022;2023-04-03T02:00:17;0.50;;;0.50;;
16654;SDS011;8441;51.344;7.022;2023-04-03T02:02:44;0.50;;;0.50;;
16654;SDS011;8441;51.344;7.022;2023-04-03T02:05:11;0.53;;;0.53;;
16654;SDS011;8441;51.344;7.022;2023-04-03T02:07:40;0.50;;;0.50;;
16654;SDS011;8441;51.344;7.022;2023-04-03T02:10:07;0.40;;;0.40;;
16654;SDS011;8441;51.344;7.022;2023-04-03T02:12:35;0.50;;;0.50;;
16654;SDS011;8441;51.344;7.022;2023-04-03T02:15:03;0.40;;;0.40;;
16654;SDS011;8441;51.344;7.022;2023-04-03T02:17:31;0.57;;;0.57;;
16654;SDS011;8441;51.344;7.022;2023-04-03T02:19:58;0.50;;;0.50;;
16654;SDS011;8441;51.344;7.022;2023-04-03T02:22:25;0.50;;;0.50;;
16654;SDS011;8441;51.344;7.022;2023-04-03T02:24:53;0.60;;;0.60;;
16654;SDS011;8441;51.344;7.022;2023-04-03T02:27:21;0.60;;;0.60;;
16654;SDS011;8441;51.344;7.022;2023-04-03T02:29:48;0.53;;;0.53;;
16654;SDS011;8441;51.344;7.022;2023-04-03T02:32:15;0.50;;;0.50;;
16654;SDS011;8441;51.344;7.022;2023-04-03T02:34:42;0.60;;;0.60;;
16654;SDS011;8441;51.344;7.022;2023-04-03T02:37:10;0.70;;;0.70;;
16654;SDS011;8441;51.344;7.022;2023-04-03T02:39:37;0.60;;;0.60;;
16654;SDS011;8441;51.344;7.022;2023-04-03T02:42:06;0.50;;;0.50;;
16654;SDS011;8441;51.344;7.022;2023-04-03T02:44:33;0.60;;;0.60;;
16654;SDS011;8441;51.344;7.022;2023-04-03T02:47:01;0.70;;;0.70;;
16654;SDS011;8441;51.344;7.022;2023-04-03T02:49:28;0.50;;;0.50;;
16654;SDS011;8441;51.344;7.022;2023-04-03T02:51:55;0.60;;;0.60;;
16654;SDS011;8441;51.344;7.022;2023-04-03T02:54:22;0.40;;;0.40;;
16654;SDS011;8441;51.344;7.022;2023-04-03T02:56:52;0.60;;;0.60;;
16654;SDS011;8441;51.344;7.022;2023-04-03T02:59:21;0.60;;;0.60;;
16654;SDS011;8441;51.344;7.022;2023-04-03T03:01:48;0.50;;;0.50;;
16654;SDS011;8441;51.344;7.022;2023-04-03T03:04:15;0.40;;;0.40;;
16654;SDS011;8441;51.344;7.022;2023-04-03T03:06:43;0.60;;;0.60;;
16654;SDS011;8441;51.344;7.022;2023-04-03T03:09:10;0.60;;;0.60;;
16654;SDS011;8441;51.344;7.022;2023-04-03T03:11:38;0.50;;;0.50;;
16654;SDS011;8441;51.344;7.022;2023-04-03T03:14:05;0.60;;;0.60;;
16654;SDS011;8441;51.344;7.022;2023-04-03T03:16:34;0.60;;;0.60;;
16654;SDS011;8441;51.344;7.022;2023-04-03T03:19:01;0.50;;;0.50;;
16654;SDS011;8441;51.344;7.022;2023-04-03T03:21:28;0.60;;;0.60;;
16654;SDS011;8441;51.344;7.022;2023-04-03T03:23:56;0.70;;;0.70;;
16654;SDS011;8441;51.344;7.022;2023-04-03T03:26:23;0.57;;;0.57;;
16654;SDS011;8441;51.344;7.022;2023-04-03T03:28:50;0.50;;;0.50;;
16654;SDS011;8441;51.344;7.022;2023-04-03T03:31:17;0.50;;;0.50;;
16654;SDS011;8441;51.344;7.022;2023-04-03T03:33:46;0.50;;;0.50;;
16654;SDS011;8441;51.344;7.022;2023-04-03T03:36:13;0.50;;;0.50;;
16654;SDS011;8441;51.344;7.022;2023-04-03T03:38:41;0.60;;;0.60;;
16654;SDS011;8441;51.344;7.022;2023-04-03T03:41:08;0.43;;;0.43;;
16654;SDS011;8441;51.344;7.022;2023-04-03T03:43:35;0.47;;;0.47;;
16654;SDS011;8441;51.344;7.022;2023-04-03T03:46:02;0.60;;;0.60;;
16654;SDS011;8441;51.344;7.022;2023-04-03T03:48:30;0.50;;;0.50;;
16654;SDS011;8441;51.344;7.022;2023-04-03T03:50:58;0.67;;;0.67;;
16654;SDS011;8441;51.344;7.022;2023-04-03T03:53:25;0.57;;;0.57;;
16654;SDS011;8441;51.344;7.022;2023-04-03T03:55:53;0.60;;;0.60;;
16654;SDS011;8441;51.344;7.022;2023-04-03T03:58:20;0.50;;;0.50;;
16654;SDS011;8441;51.344;7.022;2023-04-03T04:00:47;0.50;;;0.50;;
16654;SDS011;8441;51.344;7.022;2023-04-03T04:03:14;0.60;;;0.60;;
16654;SDS011;8441;51.344;7.022;2023-04-03T04:05:42;0.57;;;0.57;;
16654;SDS011;8441;51.344;7.022;2023-04-03T04:08:11;0.50;;;0.50;;
16654;SDS011;8441;51.344;7.022;2023-04-03T04:10:38;0.60;;;0.60;;
16654;SDS011;8441;51.344;7.022;2023-04-03T04:13:05;0.60;;;0.60;;
16654;SDS011;8441;51.344;7.022;2023-04-03T04:15:32;0.60;;;0.60;;
16654;SDS011;8441;51.344;7.022;2023-04-03T04:17:59;0.53;;;0.53;;
16654;SDS011;8441;51.344;7.022;2023-04-03T04:20:26;0.60;;;0.60;;
16654;SDS011;8441;51.344;7.022;2023-04-03T04:22:54;0.60;;;0.60;;
16654;SDS011;8441;51.344;7.022;2023-04-03T04:25:22;0.60;;;0.60;;
16654;SDS011;8441;51.344;7.022;2023-04-03T04:27:50;0.50;;;0.50;;
16654;SDS011;8441;51.344;7.022;2023-04-03T04:30:17;0.47;;;0.47;;
16654;SDS011;8441;51.344;7.022;2023-04-03T04:32:44;0.60;;;0.60;;
16654;SDS011;8441;51.344;7.022;2023-04-03T04:35:12;0.60;;;0.60;;
16654;SDS011;8441;51.344;7.022;2023-04-03T04:37:39;0.57;;;0.57;;
16654;SDS011;8441;51.344;7.022;2023-04-03T04:40:06;0.40;;;0.40;;
16654;SDS011;8441;51.344;7.022;2023-04-03T04:42:36;0.50;;;0.50;;
16654;SDS011;8441;51.344;7.022;2023-04-03T04:45:03;0.53;;;0.53;;
16654;SDS011;8441;51.344;7.022;2023-04-03T04:47:31;0.60;;;0.60;;
16654;SDS011;8441;51.344;7.022;2023-04-03T04:49:58;0.60;;;0.60;;
16654;SDS011;8441;51.344;7.022;2023-04-03T04:52:25;0.43;;;0.43;;
16654;SDS011;8441;51.344;7.022;2023-04-03T04:54:52;0.70;;;0.70;;
16654;SDS011;8441;51.344;7.022;2023-04-03T04:57:19;0.50;;;0.50;;
16654;SDS011;8441;51.344;7.022;2023-04-03T04:59:48;0.60;;;0.60;;
16654;SDS011;8441;51.344;7.022;2023-04-03T05:02:15;0.70;;;0.70;;
16654;SDS011;8441;51.344;7.022;2023-04-03T05:04:42;0.60;;;0.60;;
16654;SDS011;8441;51.344;7.022;2023-04-03T05:07:09;0.50;;;0.50;;
16654;SDS011;8441;51.344;7.022;2023-04-03T05:09:37;0.60;;;0.60;;
16654;SDS011;8441;51.344;7.022;2023-04-03T05:12:07;0.50;;;0.50;;
16654;SDS011;8441;51.344;7.022;2023-04-03T05:14:34;0.70;;;0.70;;
16654;SDS011;8441;51.344;7.022;2023-04-03T05:17:03;0.50;;;0.50;;
16654;SDS011;8441;51.344;7.022;2023-04-03T05:19:30;0.60;;;0.60;;
16654;SDS011;8441;51.344;7.022;2023-04-03T05:21:57;0.50;;;0.50;;
16654;SDS011;8441;51.344;7.022;2023-04-03T05:24:25;0.70;;;0.70;;
16654;SDS011;8441;51.344;7.022;2023-04-03T05:26:52;0.60;;;0.60;;
16654;SDS011;8441;51.344;7.022;2023-04-03T05:29:20;0.50;;;0.50;;
16654;SDS011;8441;51.344;7.022;2023-04-03T05:31:48;0.60;;;0.60;;
16654;SDS011;8441;51.344;7.022;2023-04-03T05:34:17;0.60;;;0.60;;
16654;SDS011;8441;51.344;7.022;2023-04-03T05:36:44;0.60;;;0.60;;
16654;SDS011;8441;51.344;7.022;2023-04-03T05:39:11;0.70;;;0.70;;
16654;SDS011;8441;51.344;7.022;2023-04-03T05:41:39;0.50;;;0.50;;
16654;SDS011;8441;51.344;7.022;2023-04-03T05:44:06;0.60;;;0.60;;
16654;SDS011;8441;51.344;7.022;2023-04-03T05:46:33;0.50;;;0.50;;
16654;SDS011;8441;51.344;7.022;2023-04-03T05:49:00;0.50;;;0.50;;
16654;SDS011;8441;51.344;7.022;2023-04-03T05:51:30;0.60;;;0.60;;
16654;SDS011;8441;51.344;7.022;2023-04-03T05:54:01;0.60;;;0.60;;
16654;SDS011;8441;51.344;7.022;2023-04-03T05:56:33;0.40;;;0.40;;
16654;SDS011;8441;51.344;7.022;2023-04-03T05:59:00;0.60;;;0.60;;
16654;SDS011;8441;51.344;7.022;2023-04-03T06:01:27;0.60;;;0.60;;
16654;SDS011;8441;51.344;7.022;2023-04-03T06:03:54;0.60;;;0.60;;
16654;SDS011;8441;51.344;7.022;2023-04-03T06:06:24;0.70;;;0.70;;
16654;SDS011;8441;51.344;7.022;2023-04-03T06:08:52;0.60;;;0.60;;
16654;SDS011;8441;51.344;7.022;2023-04-03T06:11:19;0.60;;;0.60;;
16654;SDS011;8441;51.344;7.022;2023-04-03T06:13:47;0.60;;;0.60;;
16654;SDS011;8441;51.344;7.022;2023-04-03T06:16:14;0.53;;;0.53;;
16654;SDS011;8441;51.344;7.022;2023-04-03T06:18:43;0.60;;;0.60;;
16654;SDS011;8441;51.344;7.022;2023-04-03T06:21:10;0.50;;;0.50;;
16654;SDS011;8441;51.344;7.022;2023-04-03T06:23:37;0.60;;;0.60;;
16654;SDS011;8441;51.344;7.022;2023-04-03T06:26:07;0.60;;;0.60;;
16654;SDS011;8441;51.344;7.022;2023-04-03T06:28:34;0.60;;;0.60;;
16654;SDS011;8441;51.344;7.022;2023-04-03T06:31:01;0.50;;;0.50;;
16654;SDS011;8441;51.344;7.022;2023-04-03T06:33:28;0.57;;;0.57;;
16654;SDS011;8441;51.344;7.022;2023-04-03T06:35:56;0.43;;;0.43;;
16654;SDS011;8441;51.344;7.022;2023-04-03T06:38:24;0.60;;;0.60;;
16654;SDS011;8441;51.344;7.022;2023-04-03T06:40:51;0.50;;;0.50;;
16654;SDS011;8441;51.344;7.022;2023-04-03T06:43:20;0.60;;;0.60;;
16654;SDS011;8441;51.344;7.022;2023-04-03T06:45:47;0.53;;;0.53;;
16654;SDS011;8441;51.344;7.022;2023-04-03T06:48:15;0.60;;;0.60;;
16654;SDS011;8441;51.344;7.022;2023-04-03T06:50:42;0.60;;;0.60;;
16654;SDS011;8441;51.344;7.022;2023-04-03T06:53:09;0.60;;;0.60;;
16654;SDS011;8441;51.344;7.022;2023-04-03T06:55:37;0.50;;;0.50;;
16654;SDS011;8441;51.344;7.022;2023-04-03T06:58:04;0.60;;;0.60;;
16654;SDS011;8441;51.344;7.022;2023-04-03T07:00:33;0.60;;;0.60;;
16654;SDS011;8441;51.344;7.022;2023-04-03T07:03:00;0.60;;;0.60;;
16654;SDS011;8441;51.344;7.022;2023-04-03T07:05:27;0.50;;;0.50;;
16654;SDS011;8441;51.344;7.022;2023-04-03T07:07:55;0.63;;;0.63;;
16654;SDS011;8441;51.344;7.022;2023-04-03T07:10:23;0.50;;;0.50;;
16654;SDS011;8441;51.344;7.022;2023-04-03T07:12:50;0.50;;;0.50;;
16654;SDS011;8441;51.344;7.022;2023-04-03T07:15:20;0.60;;;0.60;;
16654;SDS011;8441;51.344;7.022;2023-04-03T07:17:48;0.70;;;0.70;;
16654;SDS011;8441;51.344;7.022;2023-04-03T07:20:15;0.50;;;0.50;;
16654;SDS011;8441;51.344;7.022;2023-04-03T07:22:43;0.50;;;0.50;;
16654;SDS011;8441;51.344;7.022;2023-04-03T07:25:10;0.60;;;0.60;;
16654;SDS011;8441;51.344;7.022;2023-04-03T07:27:40;0.60;;;0.60;;
16654;SDS011;8441;51.344;7.022;2023-04-03T07:30:07;0.53;;;0.53;;
16654;SDS011;8441;51.344;7.022;2023-04-03T07:32:35;0.50;;;0.50;;
16654;SDS011;8441;51.344;7.022;2023-04-03T07:35:06;0.60;;;0.60;;
16654;SDS011;8441;51.344;7.022;2023-04-03T07:37:34;0.60;;;0.60;;
16654;SDS011;8441;51.344;7.022;2023-04-03T07:40:01;0.53;;;0.53;;
16654;SDS011;8441;51.344;7.022;2023-04-03T07:42:29;0.53;;;0.53;;
16654;SDS011;8441;51.344;7.022;2023-04-03T07:44:56;0.60;;;0.60;;
16654;SDS011;8441;51.344;7.022;2023-04-03T07:47:23;0.60;;;0.60;;
16654;SDS011;8441;51.344;7.022;2023-04-03T07:49:51;0.60;;;0.60;;
16654;SDS011;8441;51.344;7.022;2023-04-03T07:52:20;0.53;;;0.53;;
16654;SDS011;8441;51.344;7.022;2023-04-03T07:54:47;0.60;;;0.60;;
16654;SDS011;8441;51.344;7.022;2023-04-03T07:57:15;0.50;;;0.50;;
16654;SDS011;8441;51.344;7.022;2023-04-03T07:59:42;0.60;;;0.60;;
16654;SDS011;8441;51.344;7.022;2023-04-03T08:02:09;0.50;;;0.50;;
16654;SDS011;8441;51.344;7.022;2023-04-03T08:04:38;0.50;;;0.50;;
16654;SDS011;8441;51.344;7.022;2023-04-03T08:07:05;0.50;;;0.50;;
16654;SDS011;8441;51.344;7.022;2023-04-03T08:09:34;0.60;;;0.60;;
16654;SDS011;8441;51.344;7.022;2023-04-03T08:12:01;0.50;;;0.50;;
16654;SDS011;8441;51.344;7.022;2023-04-03T08:14:29;0.50;;;0.50;;
16654;SDS011;8441;51.344;7.022;2023-04-03T08:16:59;0.50;;;0.50;;
16654;SDS011;8441;51.344;7.022;2023-04-03T08:19:28;0.53;;;0.53;;
16654;SDS011;8441;51.344;7.022;2023-04-03T08:21:57;0.40;;;0.40;;
16654;SDS011;8441;51.344;7.022;2023-04-03T08:24:26;0.63;;;0.63;;
16654;SDS011;8441;51.344;7.022;2023-04-03T08:26:54;0.50;;;0.50;;
16654;SDS011;8441;51.344;7.022;2023-04-03T08:29:22;0.50;;;0.50;;
16654;SDS011;8441;51.344;7.022;2023-04-03T08:31:50;0.50;;;0.50;;
16654;SDS011;8441;51.344;7.022;2023-04-03T08:34:17;0.50;;;0.50;;
16654;SDS011;8441;51.344;7.022;2023-04-03T08:36:45;0.60;;;0.60;;
16654;SDS011;8441;51.344;7.022;2023-04-03T08:39:13;0.53;;;0.53;;
16654;SDS011;8441;51.344;7.022;2023-04-03T08:41:40;0.43;;;0.43;;
16654;SDS011;8441;51.344;7.022;2023-04-03T08:44:19;0.40;;;0.40;;
16654;SDS011;8441;51.344;7.022;2023-04-03T08:47:01;0.60;;;0.60;;
16654;SDS011;8441;51.344;7.022;2023-04-03T08:49:37;0.50;;;0.50;;
16654;SDS011;8441;51.344;7.022;2023-04-03T08:52:12;0.40;;;0.40;;
16654;SDS011;8441;51.344;7.022;2023-04-03T08:54:48;0.43;;;0.43;;
16654;SDS011;8441;51.344;7.022;2023-04-03T08:57:17;0.50;;;0.50;;
16654;SDS011;8441;51.344;7.022;2023-04-03T08:59:54;0.40;;;0.40;;
16654;SDS011;8441;51.344;7.022;2023-04-03T09:02:25;0.50;;;0.50;;
16654;SDS011;8441;51.344;7.022;2023-04-03T09:04:57;0.57;;;0.57;;
16654;SDS011;8441;51.344;7.022;2023-04-03T09:07:27;0.40;;;0.40;;
16654;SDS011;8441;51.344;7.022;2023-04-03T09:10:03;0.50;;;0.50;;
16654;SDS011;8441;51.344;7.022;2023-04-03T09:12:36;0.50;;;0.50;;
16654;SDS011;8441;51.344;7.022;2023-04-03T09:15:11;0.50;;;0.50;;
16654;SDS011;8441;51.344;7.022;2023-04-03T09:17:48;0.40;;;0.40;;
16654;SDS011;8441;51.344;7.022;2023-04-03T09:20:28;0.43;;;0.43;;
16654;SDS011;8441;51.344;7.022;2023-04-03T09:23:04;0.50;;;0.50;;
16654;SDS011;8441;51.344;7.022;2023-04-03T09:25:41;0.50;;;0.50;;
16654;SDS011;8441;51.344;7.022;2023-04-03T09:28:10;0.45;;;0.45;;
16654;SDS011;8441;51.344;7.022;2023-04-03T09:30:42;0.50;;;0.50;;
16654;SDS011;8441;51.344;7.022;2023-04-03T09:33:10;0.30;;;0.30;;
16654;SDS011;8441;51.344;7.022;2023-04-03T09:35:39;0.50;;;0.50;;
16654;SDS011;8441;51.344;7.022;2023-04-03T09:38:14;0.40;;;0.40;;
16654;SDS011;8441;51.344;7.022;2023-04-03T09:40:43;0.50;;;0.50;;
16654;SDS011;8441;51.344;7.022;2023-04-03T09:43:21;0.40;;;0.40;;
16654;SDS011;8441;51.344;7.022;2023-04-03T09:45:57;0.50;;;0.50;;
16654;SDS011;8441;51.344;7.022;2023-04-03T09:48:52;0.40;;;0.40;;
16654;SDS011;8441;51.344;7.022;2023-04-03T09:51:24;0.40;;;0.40;;
16654;SDS011;8441;51.344;7.022;2023-04-03T09:53:53;0.50;;;0.50;;
16654;SDS011;8441;51.344;7.022;2023-04-03T09:56:24;0.38;;;0.38;;
16654;SDS011;8441;51.344;7.022;2023-04-03T09:59:06;0.47;;;0.47;;
16654;SDS011;8441;51.344;7.022;2023-04-03T10:01:43;0.40;;;0.40;;
16654;SDS011;8441;51.344;7.022;2023-04-03T10:04:22;0.43;;;0.43;;
16654;SDS011;8441;51.344;7.022;2023-04-03T10:06:50;0.40;;;0.40;;
16654;SDS011;8441;51.344;7.022;2023-04-03T10:09:19;0.40;;;0.40;;
16654;SDS011;8441;51.344;7.022;2023-04-03T10:11:57;0.40;;;0.40;;
16654;SDS011;8441;51.344;7.022;2023-04-03T10:14:29;0.50;;;0.50;;
16654;SDS011;8441;51.344;7.022;2023-04-03T10:17:03;0.47;;;0.47;;
16654;SDS011;8441;51.344;7.022;2023-04-03T10:19:41;0.30;;;0.30;;
16654;SDS011;8441;51.344;7.022;2023-04-03T10:22:20;0.35;;;0.35;;
16654;SDS011;8441;51.344;7.022;2023-04-03T10:24:59;0.40;;;0.40;;
16654;SDS011;8441;51.344;7.022;2023-04-03T10:27:36;0.40;;;0.40;;
16654;SDS011;8441;51.344;7.022;2023-04-03T10:30:13;0.40;;;0.40;;
16654;SDS011;8441;51.344;7.022;2023-04-03T10:33:07;0.30;;;0.30;;
16654;SDS011;8441;51.344;7.022;2023-04-03T10:35:44;0.40;;;0.40;;
16654;SDS011;8441;51.344;7.022;2023-04-03T10:38:19;0.50;;;0.50;;
16654;SDS011;8441;51.344;7.022;2023-04-03T10:40:55;0.40;;;0.40;;
16654;SDS011;8441;51.344;7.022;2023-04-03T10:43:30;0.38;;;0.38;;
16654;SDS011;8441;51.344;7.022;2023-04-03T10:46:08;0.40;;;0.40;;
16654;SDS011;8441;51.344;7.022;2023-04-03T10:48:49;0.40;;;0.40;;
16654;SDS011;8441;51.344;7.022;2023-04-03T10:51:27;0.40;;;0.40;;
16654;SDS011;8441;51.344;7.022;2023-04-03T10:54:00;0.30;;;0.30;;
16654;SDS011;8441;51.344;7.022;2023-04-03T10:56:35;0.30;;;0.30;;
16654;SDS011;8441;51.344;7.022;2023-04-03T10:59:08;0.40;;;0.40;;
16654;SDS011;8441;51.344;7.022;2023-04-03T11:01:51;0.40;;;0.40;;
16654;SDS011;8441;51.344;7.022;2023-04-03T11:04:22;0.30;;;0.30;;
16654;SDS011;8441;51.344;7.022;2023-04-03T11:06:53;0.40;;;0.40;;
16654;SDS011;8441;51.344;7.022;2023-04-03T11:09:26;0.30;;;0.30;;
16654;SDS011;8441;51.344;7.022;2023-04-03T11:11:55;0.32;;;0.32;;
16654;SDS011;8441;51.344;7.022;2023-04-03T11:14:28;0.30;;;0.30;;
16654;SDS011;8441;51.344;7.022;2023-04-03T11:17:05;0.30;;;0.30;;
16654;SDS011;8441;51.344;7.022;2023-04-03T11:19:49;0.40;;;0.40;;
16654;SDS011;8441;51.344;7.022;2023-04-03T11:22:27;0.40;;;0.40;;
16654;SDS011;8441;51.344;7.022;2023-04-03T11:24:58;0.30;;;0.30;;
16654;SDS011;8441;51.344;7.022;2023-04-03T11:27:34;0.40;;;0.40;;
16654;SDS011;8441;51.344;7.022;2023-04-03T11:30:06;0.30;;;0.30;;
16654;SDS011;8441;51.344;7.022;2023-04-03T11:35:38;0.40;;;0.40;;
16654;SDS011;8441;51.344;7.022;2023-04-03T11:38:13;0.40;;;0.40;;
16654;SDS011;8441;51.344;7.022;2023-04-03T11:40:45;0.30;;;0.30;;
16654;SDS011;8441;51.344;7.022;2023-04-03T11:43:20;0.30;;;0.30;;
16654;SDS011;8441;51.344;7.022;2023-04-03T11:45:56;0.40;;;0.40;;
16654;SDS011;8441;51.344;7.022;2023-04-03T12:09:29;0.40;;;0.40;;
16654;SDS011;8441;51.344;7.022;2023-04-03T12:12:27;0.40;;;0.40;;
16654;SDS011;8441;51.344;7.022;2023-04-03T12:14:54;0.30;;;0.30;;
16654;SDS011;8441;51.344;7.022;2023-04-03T12:17:38;0.30;;;0.30;;
16654;SDS011;8441;51.344;7.022;2023-04-03T12:23:21;0.40;;;0.40;;
16654;SDS011;8441;51.344;7.022;2023-04-03T12:25:51;0.40;;;0.40;;
16654;SDS011;8441;51.344;7.022;2023-04-03T12:28:25;0.32;;;0.32;;
16654;SDS011;8441;51.344;7.022;2023-04-03T12:30:53;0.40;;;0.40;;
16654;SDS011;8441;51.344;7.022;2023-04-03T12:33:24;0.40;;;0.40;;
16654;SDS011;8441;51.344;7.022;2023-04-03T12:36:02;0.40;;;0.40;;
16654;SDS011;8441;51.344;7.022;2023-04-03T12:38:41;0.40;;;0.40;;
16654;SDS011;8441;51.344;7.022;2023-04-03T12:41:36;0.40;;;0.40;;
16654;SDS011;8441;51.344;7.022;2023-04-03T12:44:12;0.30;;;0.30;;
16654;SDS011;8441;51.344;7.022;2023-04-03T12:46:51;0.35;;;0.35;;
16654;SDS011;8441;51.344;7.022;2023-04-03T12:49:30;0.40;;;0.40;;
16654;SDS011;8441;51.344;7.022;2023-04-03T12:52:04;0.40;;;0.40;;
16654;SDS011;8441;51.344;7.022;2023-04-03T12:54:34;0.30;;;0.30;;
16654;SDS011;8441;51.344;7.022;2023-04-03T12:57:11;0.40;;;0.40;;
16654;SDS011;8441;51.344;7.022;2023-04-03T12:59:47;0.35;;;0.35;;
16654;SDS011;8441;51.344;7.022;2023-04-03T13:02:17;0.40;;;0.40;;
16654;SDS011;8441;51.344;7.022;2023-04-03T13:04:49;0.30;;;0.30;;
16654;SDS011;8441;51.344;7.022;2023-04-03T13:07:20;0.40;;;0.40;;
16654;SDS011;8441;51.344;7.022;2023-04-03T13:09:59;0.30;;;0.30;;
16654;SDS011;8441;51.344;7.022;2023-04-03T13:12:29;0.30;;;0.30;;
16654;SDS011;8441;51.344;7.022;2023-04-03T13:14:57;0.20;;;0.20;;
16654;SDS011;8441;51.344;7.022;2023-04-03T13:17:26;0.30;;;0.30;;
16654;SDS011;8441;51.344;7.022;2023-04-03T13:19:54;0.30;;;0.30;;
16654;SDS011;8441;51.344;7.022;2023-04-03T13:22:24;0.30;;;0.30;;
16654;SDS011;8441;51.344;7.022;2023-04-03T13:24:56;0.30;;;0.30;;
16654;SDS011;8441;51.344;7.022;2023-04-03T13:27:28;0.40;;;0.40;;
16654;SDS011;8441;51.344;7.022;2023-04-03T13:29:58;0.40;;;0.40;;
16654;SDS011;8441;51.344;7.022;2023-04-03T13:32:28;0.30;;;0.30;;
16654;SDS011;8441;51.344;7.022;2023-04-03T13:34:57;0.30;;;0.30;;
16654;SDS011;8441;51.344;7.022;2023-04-03T13:37:26;0.30;;;0.30;;
16654;SDS011;8441;51.344;7.022;2023-04-03T13:40:00;0.30;;;0.30;;
16654;SDS011;8441;51.344;7.022;2023-04-03T13:42:37;0.38;;;0.38;;
16654;SDS011;8441;51.344;7.022;2023-04-03T13:45:11;0.30;;;0.30;;
16654;SDS011;8441;51.344;7.022;2023-04-03T13:47:45;0.32;;;0.32;;
16654;SDS011;8441;51.344;7.022;2023-04-03T13:50:14;0.30;;;0.30;;
16654;SDS011;8441;51.344;7.022;2023-04-03T13:52:45;0.30;;;0.30;;
16654;SDS011;8441;51.344;7.022;2023-04-03T13:55:20;0.30;;;0.30;;
16654;SDS011;8441;51.344;7.022;2023-04-03T13:57:50;0.40;;;0.40;;
16654;SDS011;8441;51.344;7.022;2023-04-03T14:00:21;0.30;;;0.30;;
16654;SDS011;8441;51.344;7.022;2023-04-03T14:02:54;0.28;;;0.28;;
16654;SDS011;8441;51.344;7.022;2023-04-03T14:05:23;0.30;;;0.30;;
16654;SDS011;8441;51.344;7.022;2023-04-03T14:07:51;0.20;;;0.20;;
16654;SDS011;8441;51.344;7.022;2023-04-03T14:10:22;0.30;;;0.30;;
16654;SDS011;8441;51.344;7.022;2023-04-03T14:12:49;0.22;;;0.22;;
16654;SDS011;8441;51.344;7.022;2023-04-03T14:15:18;0.30;;;0.30;;
16654;SDS011;8441;51.344;7.022;2023-04-03T14:17:46;0.30;;;0.30;;
16654;SDS011;8441;51.344;7.022;2023-04-03T14:20:14;0.40;;;0.40;;
16654;SDS011;8441;51.344;7.022;2023-04-03T14:22:43;0.40;;;0.40;;
16654;SDS011;8441;51.344;7.022;2023-04-03T14:25:10;0.30;;;0.30;;
16654;SDS011;8441;51.344;7.022;2023-04-03T14:27:40;0.20;;;0.20;;
16654;SDS011;8441;51.344;7.022;2023-04-03T14:30:09;0.30;;;0.30;;
16654;SDS011;8441;51.344;7.022;2023-04-03T14:32:41;0.30;;;0.30;;
16654;SDS011;8441;51.344;7.022;2023-04-03T14:35:08;0.30;;;0.30;;
16654;SDS011;8441;51.344;7.022;2023-04-03T14:37:35;0.30;;;0.30;;
16654;SDS011;8441;51.344;7.022;2023-04-03T14:40:03;0.30;;;0.30;;
16654;SDS011;8441;51.344;7.022;2023-04-03T14:42:32;0.30;;;0.30;;
16654;SDS011;8441;51.344;7.022;2023-04-03T14:45:03;0.30;;;0.30;;
16654;SDS011;8441;51.344;7.022;2023-04-03T14:47:32;0.30;;;0.30;;
16654;SDS011;8441;51.344;7.022;2023-04-03T14:50:03;0.30;;;0.30;;
16654;SDS011;8441;51.344;7.022;2023-04-03T14:52:34;0.30;;;0.30;;
16654;SDS011;8441;51.344;7.022;2023-04-03T14:55:03;0.40;;;0.40;;
16654;SDS011;8441;51.344;7.022;2023-04-03T14:57:32;0.30;;;0.30;;
16654;SDS011;8441;51.344;7.022;2023-04-03T14:59:59;0.40;;;0.40;;
16654;SDS011;8441;51.344;7.022;2023-04-03T15:02:31;0.32;;;0.32;;
16654;SDS011;8441;51.344;7.022;2023-04-03T15:05:00;0.30;;;0.30;;
16654;SDS011;8441;51.344;7.022;2023-04-03T15:07:29;0.30;;;0.30;;
16654;SDS011;8441;51.344;7.022;2023-04-03T15:09:58;0.30;;;0.30;;
16654;SDS011;8441;51.344;7.022;2023-04-03T15:12:27;0.30;;;0.30;;
16654;SDS011;8441;51.344;7.022;2023-04-03T15:14:55;0.40;;;0.40;;
16654;SDS011;8441;51.344;7.022;2023-04-03T15:17:22;0.30;;;0.30;;
16654;SDS011;8441;51.344;7.022;2023-04-03T15:19:51;0.30;;;0.30;;
16654;SDS011;8441;51.344;7.022;2023-04-03T15:22:18;0.25;;;0.25;;
16654;SDS011;8441;51.344;7.022;2023-04-03T15:24:46;0.40;;;0.40;;
16654;SDS011;8441;51.344;7.022;2023-04-03T15:27:13;0.30;;;0.30;;
16654;SDS011;8441;51.344;7.022;2023-04-03T15:29:41;0.20;;;0.20;;
16654;SDS011;8441;51.344;7.022;2023-04-03T15:32:10;0.22;;;0.22;;
16654;SDS011;8441;51.344;7.022;2023-04-03T15:34:38;0.30;;;0.30;;
16654;SDS011;8441;51.344;7.022;2023-04-03T15:37:07;0.30;;;0.30;;
16654;SDS011;8441;51.344;7.022;2023-04-03T15:39:35;0.40;;;0.40;;
16654;SDS011;8441;51.344;7.022;2023-04-03T15:42:02;0.30;;;0.30;;
16654;SDS011;8441;51.344;7.022;2023-04-03T15:44:31;0.40;;;0.40;;
16654;SDS011;8441;51.344;7.022;2023-04-03T15:46:59;0.35;;;0.35;;
16654;SDS011;8441;51.344;7.022;2023-04-03T15:49:27;0.30;;;0.30;;
16654;SDS011;8441;51.344;7.022;2023-04-03T15:51:54;0.40;;;0.40;;